Portada
METAR-TAF:

METAR-TAF

Aeroports :

Shelby, Carolina del Nord, Estats Units d'Amèrica

latitud: 35-15N, longitud: 081-36W, altitud: 258 m

Observació

L'informe es va fer fa 19 minuts, a les 00:15 UTC
Vent calma
Temperatura 26°C
Humitat 89%
Pressió 1019 hPa
Visibilitat: 16.1 km
Núvols disperses a una alçada de 4200 ft
Cel ennuvolat a una alçada de 6000 ft
Cel ennuvolat a una alçada de 7500 ft
pluja

METAR: KEHO 080015Z AUTO 00000KT 10SM -RA SCT042 BKN060 BKN075 26/24 A3009 RMK AO2 T02590235

Hora: 20:34 (00:34 UTC)


TAF: manca

Observacions i pronòstics meteorològics de més de 4000 aeroports (METAR i TAF).

Les estacions disponibles són els punts grocs i vermells al mapa.

Posi el ratolí al punt desitjat per veure el nom de l'estació.

Feu clic per veure les observacions i els pronòstics meteorològics.

Per canviar el mapa: feu clic els botons verds amb una creu de color negre per apropar; al botó verd amb un guió per allunyar la imatge; o en les fletxes verdes per a mapes adjacents.


METAR-TAF: